createdAt,value
2023-04-20T00:01:17.149Z,98871.21
2023-04-20T00:02:43.289Z,98875.06
2023-04-20T00:04:30.620Z,98868.96
2023-04-20T00:06:15.534Z,98872.48
2023-04-20T00:08:00.340Z,98872.19
2023-04-20T00:09:39.205Z,98872.86
2023-04-20T00:11:05.939Z,98870.52
2023-04-20T00:12:51.238Z,98872.19
2023-04-20T00:14:25.150Z,98870.95
2023-04-20T00:16:19.375Z,98874.25
2023-04-20T00:17:52.382Z,98875.16
2023-04-20T00:19:14.632Z,98869.25
2023-04-20T00:20:59.545Z,98875.01
2023-04-20T00:22:33.363Z,98870.11
2023-04-20T00:24:07.114Z,98872.52
2023-04-20T00:25:38.197Z,98873.92
2023-04-20T00:27:12.207Z,98868.14
2023-04-20T00:28:53.765Z,98873.61
2023-04-20T00:30:18.060Z,98875.71
2023-04-20T00:31:46.178Z,98872.52
2023-04-20T00:33:33.702Z,98870.91
2023-04-20T00:35:18.755Z,98870.37
2023-04-20T00:36:40.100Z,98870.67
2023-04-20T00:38:13.876Z,98864.30
2023-04-20T00:39:37.733Z,98864.98
2023-04-20T00:41:04.359Z,98866.65
2023-04-20T00:42:41.104Z,98868.97
2023-04-20T00:44:25.111Z,98864.15
2023-04-20T00:46:05.721Z,98867.90
2023-04-20T00:47:47.603Z,98866.80
2023-04-20T00:49:33.723Z,98864.09
2023-04-20T00:51:10.026Z,98864.55
2023-04-20T00:52:48.827Z,98868.60
2023-04-20T00:54:22.178Z,98865.95
2023-04-20T00:55:55.259Z,98866.66
2023-04-20T00:57:40.906Z,98866.36
2023-04-20T00:59:14.851Z,98864.27
2023-04-20T01:00:59.980Z,98868.80
2023-04-20T01:02:36.318Z,98869.29
2023-04-20T01:04:25.787Z,98871.62
2023-04-20T01:06:15.316Z,98869.85
2023-04-20T01:07:59.970Z,98872.08
2023-04-20T01:09:47.724Z,98872.84
2023-04-20T01:11:38.407Z,98869.83
2023-04-20T01:13:09.704Z,98866.25
2023-04-20T01:14:45.467Z,98870.30
2023-04-20T01:16:19.637Z,98869.83
2023-04-20T01:18:05.901Z,98871.40
2023-04-20T01:19:53.515Z,98877.84
2023-04-20T01:21:29.346Z,98871.55
2023-04-20T01:23:03.153Z,98871.95
2023-04-20T01:24:56.408Z,98874.45
2023-04-20T01:26:32.567Z,98874.11
2023-04-20T01:28:17.850Z,98854.52
2023-04-20T01:29:53.927Z,98871.96
2023-04-20T01:31:16.248Z,98871.68
2023-04-20T01:33:01.342Z,98869.84
2023-04-20T01:34:34.955Z,98872.98
2023-04-20T01:36:19.978Z,98868.37
2023-04-20T01:37:55.150Z,98869.70
2023-04-20T01:39:40.155Z,98864.14
2023-04-20T01:41:37.387Z,98860.27
2023-04-20T01:43:22.696Z,98869.39
2023-04-20T01:44:55.899Z,98867.74
2023-04-20T01:46:29.254Z,98863.03
2023-04-20T01:48:04.893Z,98862.60
2023-04-20T01:49:59.507Z,98866.45
2023-04-20T01:51:37.579Z,98867.20
2023-04-20T01:53:27.772Z,98867.48
2023-04-20T01:55:14.497Z,98865.11
2023-04-20T01:56:48.235Z,98870.27
2023-04-20T01:58:34.113Z,98869.84
2023-04-20T02:00:08.950Z,98872.45
2023-04-20T02:01:38.591Z,98872.11
2023-04-20T02:03:13.189Z,98864.38
2023-04-20T02:04:58.333Z,98864.82
2023-04-20T02:06:25.170Z,98867.06
2023-04-20T02:08:06.144Z,98870.74
2023-04-20T02:09:50.090Z,98877.44
2023-04-20T02:11:35.313Z,98875.89
2023-04-20T02:13:08.733Z,98877.30
2023-04-20T02:14:41.928Z,98875.66
2023-04-20T02:16:17.802Z,98879.75
2023-04-20T02:17:52.806Z,98876.34
2023-04-20T02:19:29.118Z,98877.61
2023-04-20T02:21:13.997Z,98870.07
2023-04-20T02:22:58.695Z,98873.08
2023-04-20T02:24:43.864Z,98875.11
2023-04-20T02:26:21.714Z,98863.67
2023-04-20T02:27:54.862Z,98874.66
2023-04-20T02:29:48.538Z,98874.18
2023-04-20T02:31:40.817Z,98875.92
2023-04-20T02:33:24.743Z,98872.68
2023-04-20T02:35:05.144Z,98875.09
2023-04-20T02:36:56.308Z,98863.64
2023-04-20T02:38:41.391Z,98873.82
2023-04-20T02:40:26.866Z,98873.42
2023-04-20T02:42:03.983Z,98877.74
2023-04-20T02:43:48.804Z,98879.39
2023-04-20T02:45:33.753Z,98879.91
2023-04-20T02:47:19.568Z,98877.74
2023-04-20T02:49:13.017Z,98878.98
2023-04-20T02:50:48.705Z,98877.13
2023-04-20T02:52:25.670Z,98873.55
2023-04-20T02:54:01.969Z,98878.45
2023-04-20T02:55:41.969Z,98864.69
2023-04-20T02:57:15.752Z,98878.52
2023-04-20T02:59:00.861Z,98875.61
2023-04-20T03:01:22.251Z,98865.04
2023-04-20T03:02:58.131Z,98873.48
2023-04-20T03:04:44.422Z,98875.55
2023-04-20T03:06:39.680Z,98876.59
2023-04-20T03:08:15.437Z,98869.86
2023-04-20T03:10:00.920Z,98879.56
2023-04-20T03:11:53.167Z,98875.69
2023-04-20T03:13:28.966Z,98880.34
2023-04-20T03:15:11.153Z,98879.41
2023-04-20T03:17:11.495Z,98869.79
2023-04-20T03:18:47.317Z,98884.67
2023-04-20T03:20:34.801Z,98888.37
2023-04-20T03:22:20.049Z,98888.13
2023-04-20T03:24:01.758Z,98887.27
2023-04-20T03:25:31.163Z,98884.96
2023-04-20T03:27:06.945Z,98886.64
2023-04-20T03:29:00.209Z,98882.39
2023-04-20T03:30:36.584Z,98885.95
2023-04-20T03:32:32.081Z,98891.75
2023-04-20T03:34:14.291Z,98893.31
2023-04-20T03:35:57.431Z,98893.45
2023-04-20T03:37:33.751Z,98892.20
2023-04-20T03:39:08.794Z,98896.90
2023-04-20T03:40:54.252Z,98899.32
2023-04-20T03:42:45.154Z,98901.61
2023-04-20T03:44:21.220Z,98891.41
2023-04-20T03:45:54.453Z,98903.13
2023-04-20T03:47:35.581Z,98906.06
2023-04-20T03:49:15.568Z,98903.09
2023-04-20T03:51:00.258Z,98902.55
2023-04-20T03:52:35.688Z,98901.95
2023-04-20T03:54:11.100Z,98903.29
2023-04-20T03:55:35.538Z,98903.55
2023-04-20T03:57:14.418Z,98904.02
2023-04-20T03:58:47.701Z,98901.61
2023-04-20T04:00:39.103Z,98904.39
2023-04-20T04:02:02.227Z,98896.74
2023-04-20T04:03:47.530Z,98900.41
2023-04-20T04:05:23.324Z,98900.67
2023-04-20T04:07:08.897Z,98893.78
2023-04-20T04:08:50.501Z,98897.30
2023-04-20T04:10:24.239Z,98893.20
2023-04-20T04:11:57.582Z,98894.02
2023-04-20T04:13:42.862Z,98891.44
2023-04-20T04:15:19.627Z,98892.51
2023-04-20T04:17:00.855Z,98889.40
2023-04-20T04:18:41.686Z,98893.30
2023-04-20T04:20:29.409Z,98890.73
2023-04-20T04:22:03.988Z,98891.66
2023-04-20T04:23:28.834Z,98896.07
2023-04-20T04:25:11.743Z,98895.56
2023-04-20T04:26:47.619Z,98891.67
2023-04-20T04:28:33.308Z,98896.77
2023-04-20T04:30:11.540Z,98904.48
2023-04-20T04:31:36.194Z,98904.35
2023-04-20T04:33:21.791Z,98905.33
2023-04-20T04:35:06.991Z,98903.56
2023-04-20T04:36:40.403Z,98904.98
2023-04-20T04:38:12.603Z,98904.17
2023-04-20T04:39:48.601Z,98901.38
2023-04-20T04:41:14.868Z,98903.05
2023-04-20T04:42:48.188Z,98899.55
2023-04-20T04:44:19.775Z,98901.91
2023-04-20T04:45:53.230Z,98900.02
2023-04-20T04:47:29.513Z,98904.99
2023-04-20T04:49:05.385Z,98901.44
2023-04-20T04:50:40.826Z,98910.41
2023-04-20T04:52:21.923Z,98912.13
2023-04-20T04:53:56.729Z,98912.89
2023-04-20T04:55:30.435Z,98917.70
2023-04-20T04:57:06.387Z,98918.12
2023-04-20T04:58:51.064Z,98919.99
2023-04-20T05:00:27.469Z,98919.63
2023-04-20T05:02:12.999Z,98921.70
2023-04-20T05:03:46.784Z,98922.23
2023-04-20T05:05:22.811Z,98917.68
2023-04-20T05:07:07.992Z,98923.95
2023-04-20T05:08:44.543Z,98922.67
2023-04-20T05:10:20.342Z,98921.05
2023-04-20T05:12:05.289Z,98925.13
2023-04-20T05:13:38.629Z,98924.23
2023-04-20T05:15:19.532Z,98930.52
2023-04-20T05:17:04.232Z,98930.46
2023-04-20T05:18:38.937Z,98926.55
2023-04-20T05:20:12.593Z,98922.49
2023-04-20T05:21:48.228Z,98930.23
2023-04-20T05:23:36.768Z,98933.05
2023-04-20T05:25:18.202Z,98931.39
2023-04-20T05:26:53.569Z,98935.73
2023-04-20T05:28:18.625Z,98916.23
2023-04-20T05:29:47.436Z,98933.77
2023-04-20T05:31:21.261Z,98932.08
2023-04-20T05:33:02.131Z,98936.17
2023-04-20T05:34:31.419Z,98940.16
2023-04-20T05:36:17.599Z,98935.78
2023-04-20T05:38:02.436Z,98940.09
2023-04-20T05:39:24.448Z,98946.92
2023-04-20T05:40:59.814Z,98944.59
2023-04-20T05:42:31.524Z,98937.56
2023-04-20T05:44:06.991Z,98944.24
2023-04-20T05:45:42.609Z,98947.09
2023-04-20T05:47:23.432Z,98946.35
2023-04-20T05:48:58.890Z,98942.68
2023-04-20T05:50:53.442Z,98945.52
2023-04-20T05:52:38.368Z,98948.04
2023-04-20T05:54:23.501Z,98944.81
2023-04-20T05:56:08.457Z,98950.92
2023-04-20T05:57:41.817Z,98952.41
2023-04-20T05:59:32.272Z,98954.20
2023-04-20T06:01:05.191Z,98954.84
2023-04-20T06:02:29.418Z,98948.37
2023-04-20T06:04:14.122Z,98958.00
2023-04-20T06:05:47.763Z,98956.64
2023-04-20T06:07:14.182Z,98959.89
2023-04-20T06:08:59.520Z,98961.56
2023-04-20T06:10:48.951Z,98962.09
2023-04-20T06:12:34.074Z,98959.65
2023-04-20T06:14:14.996Z,98961.02
2023-04-20T06:15:44.160Z,98961.40
2023-04-20T06:17:09.181Z,98962.58
2023-04-20T06:18:38.283Z,98959.25
2023-04-20T06:20:24.049Z,98960.39
2023-04-20T06:21:49.735Z,98962.55
2023-04-20T06:23:23.371Z,98968.39
2023-04-20T06:25:08.353Z,98967.35
2023-04-20T06:26:30.117Z,98968.79
2023-04-20T06:28:15.203Z,98963.92
2023-04-20T06:30:00.286Z,98970.52
2023-04-20T06:31:34.084Z,98972.84
2023-04-20T06:33:19.203Z,98974.45
2023-04-20T06:35:04.689Z,98972.94
2023-04-20T06:36:37.976Z,98975.73
2023-04-20T06:38:06.876Z,98976.27
2023-04-20T06:39:48.160Z,98977.17
2023-04-20T06:41:33.798Z,98968.52
2023-04-20T06:43:11.893Z,98976.93
2023-04-20T06:44:47.385Z,98978.50
2023-04-20T06:46:16.843Z,98978.89
2023-04-20T06:47:57.607Z,98980.08
2023-04-20T06:49:31.228Z,98978.27
2023-04-20T06:51:04.748Z,98975.73
2023-04-20T06:52:31.231Z,98981.52
2023-04-20T06:54:00.483Z,98980.64
2023-04-20T06:55:48.716Z,98982.42
2023-04-20T06:57:24.722Z,98985.18
2023-04-20T06:58:58.092Z,98987.76
2023-04-20T07:00:27.824Z,98983.57
2023-04-20T07:01:58.895Z,98982.13
2023-04-20T07:03:32.829Z,98984.04
2023-04-20T07:05:06.237Z,98986.39
2023-04-20T07:06:35.467Z,98988.14
2023-04-20T07:08:08.855Z,98985.68
2023-04-20T07:09:53.481Z,98989.85
2023-04-20T07:11:29.709Z,98992.34
2023-04-20T07:12:51.027Z,98991.79
2023-04-20T07:14:13.313Z,98994.03
2023-04-20T07:15:49.085Z,98988.83
2023-04-20T07:17:34.304Z,98989.34
2023-04-20T07:19:19.801Z,98993.25
2023-04-20T07:20:56.182Z,98991.91
2023-04-20T07:22:32.485Z,98989.75
2023-04-20T07:24:05.890Z,98992.79
2023-04-20T07:25:27.814Z,98991.70
2023-04-20T07:27:09.054Z,98990.23
2023-04-20T07:28:30.751Z,98993.95
2023-04-20T07:29:52.273Z,98993.69
2023-04-20T07:31:22.027Z,98996.98
2023-04-20T07:32:53.597Z,98998.00
2023-04-20T07:34:27.710Z,98997.45
2023-04-20T07:36:13.394Z,98994.85
2023-04-20T07:37:53.841Z,98995.98
2023-04-20T07:39:30.231Z,98999.50
2023-04-20T07:41:03.855Z,98994.45
2023-04-20T07:42:57.419Z,98998.48
2023-04-20T07:44:21.757Z,98994.06
2023-04-20T07:46:06.644Z,99002.50
2023-04-20T07:47:51.623Z,99001.70
2023-04-20T07:49:41.733Z,98998.59
2023-04-20T07:51:13.678Z,98999.72
2023-04-20T07:52:35.802Z,99003.67
2023-04-20T07:54:09.511Z,99003.64
2023-04-20T07:55:40.918Z,99003.95
2023-04-20T07:57:16.372Z,99000.95
2023-04-20T07:58:52.379Z,99002.69
2023-04-20T08:00:24.484Z,99000.73
2023-04-20T08:01:59.895Z,99008.30
2023-04-20T08:03:45.518Z,98995.36
2023-04-20T08:05:10.062Z,99008.38
2023-04-20T08:06:32.904Z,99009.41
2023-04-20T08:07:59.361Z,99005.68
2023-04-20T08:09:44.721Z,99005.12
2023-04-20T08:11:27.727Z,99008.18
2023-04-20T08:13:03.340Z,99004.09
2023-04-20T08:14:25.278Z,99012.02
2023-04-20T08:15:58.142Z,99009.16
2023-04-20T08:17:24.603Z,99008.80
2023-04-20T08:18:57.957Z,99014.60
2023-04-20T08:20:30.851Z,99012.66
2023-04-20T08:22:20.029Z,99013.02
2023-04-20T08:23:53.324Z,99011.25
2023-04-20T08:25:27.373Z,99015.67
2023-04-20T08:27:01.613Z,99017.06
2023-04-20T08:28:34.933Z,99020.99
2023-04-20T08:30:20.542Z,99018.46
2023-04-20T08:31:41.877Z,99021.52
2023-04-20T08:33:11.514Z,99026.73
2023-04-20T08:34:33.884Z,99024.80
2023-04-20T08:36:19.442Z,99021.93
2023-04-20T08:38:03.754Z,99019.39
2023-04-20T08:39:49.898Z,99021.47
2023-04-20T08:41:23.197Z,99019.53
2023-04-20T08:42:47.304Z,99022.05
2023-04-20T08:44:11.472Z,99022.08
2023-04-20T08:45:44.665Z,99027.12
2023-04-20T08:47:20.159Z,99028.06
2023-04-20T08:49:05.198Z,99025.73
2023-04-20T08:50:50.523Z,99019.98
2023-04-20T08:52:12.234Z,99024.80
2023-04-20T08:53:53.943Z,99024.83
2023-04-20T08:55:27.338Z,99026.25
2023-04-20T08:56:57.042Z,99028.61
2023-04-20T08:58:30.569Z,99029.41
2023-04-20T09:00:05.762Z,99030.73
2023-04-20T09:01:39.072Z,99031.52
2023-04-20T09:03:11.187Z,99033.23
2023-04-20T09:04:33.262Z,99030.09
2023-04-20T09:06:02.953Z,99031.31
2023-04-20T09:07:32.061Z,99038.52
2023-04-20T09:08:58.170Z,99036.66
2023-04-20T09:10:31.636Z,99029.23
2023-04-20T09:12:07.700Z,99034.06
2023-04-20T09:13:41.589Z,99036.70
2023-04-20T09:15:15.219Z,99037.11
2023-04-20T09:17:00.787Z,99035.75
2023-04-20T09:18:30.263Z,99037.84
2023-04-20T09:19:51.958Z,99034.55
2023-04-20T09:21:27.746Z,99036.56
2023-04-20T09:22:54.226Z,99031.65
2023-04-20T09:24:27.712Z,99030.38
2023-04-20T09:26:04.028Z,99036.34
2023-04-20T09:27:45.023Z,99032.58
2023-04-20T09:29:30.387Z,99035.21
2023-04-20T09:31:16.789Z,99024.58
2023-04-20T09:32:52.390Z,99028.69
2023-04-20T09:34:14.565Z,99028.61
2023-04-20T09:35:56.043Z,99029.08
2023-04-20T09:37:40.718Z,99029.54
2023-04-20T09:39:03.771Z,99033.92
2023-04-20T09:40:48.696Z,99033.00
2023-04-20T09:42:10.954Z,99032.90
2023-04-20T09:43:40.167Z,99030.33
2023-04-20T09:45:02.599Z,99024.11
2023-04-20T09:46:36.087Z,99031.86
2023-04-20T09:47:57.834Z,99032.76
2023-04-20T09:49:33.397Z,99033.08
2023-04-20T09:50:57.099Z,99034.14
2023-04-20T09:52:19.257Z,99033.43
2023-04-20T09:53:54.817Z,99031.00
2023-04-20T09:55:28.369Z,99030.91
2023-04-20T09:57:04.625Z,99020.52
2023-04-20T09:58:33.403Z,99021.58
2023-04-20T09:59:57.319Z,99017.62
2023-04-20T10:01:27.220Z,99021.70
2023-04-20T10:03:00.777Z,99021.96
2023-04-20T10:04:23.736Z,99018.29
2023-04-20T10:05:47.574Z,99019.25
2023-04-20T10:07:11.994Z,99015.54
2023-04-20T10:08:42.131Z,99018.22
2023-04-20T10:10:15.571Z,99015.24
2023-04-20T10:11:53.975Z,99007.21
2023-04-20T10:13:28.827Z,99017.17
2023-04-20T10:14:57.729Z,99022.06
2023-04-20T10:16:27.046Z,99019.25
2023-04-20T10:17:48.856Z,99017.73
2023-04-20T10:19:10.641Z,99015.02
2023-04-20T10:20:34.773Z,99013.63
2023-04-20T10:22:20.071Z,99013.84
2023-04-20T10:23:53.631Z,99014.91
2023-04-20T10:25:17.747Z,99016.77
2023-04-20T10:26:47.240Z,99011.42
2023-04-20T10:28:29.268Z,99004.67
2023-04-20T10:29:52.917Z,99007.99
2023-04-20T10:31:33.828Z,99013.39
2023-04-20T10:32:58.011Z,99017.51
2023-04-20T10:34:24.629Z,99011.97
2023-04-20T10:35:58.995Z,99008.35
2023-04-20T10:37:32.894Z,99008.60
2023-04-20T10:39:19.531Z,99009.86
2023-04-20T10:41:04.691Z,99007.73
2023-04-20T10:42:36.097Z,98997.56
2023-04-20T10:44:07.623Z,99001.17
2023-04-20T10:45:52.363Z,99001.48
2023-04-20T10:47:37.540Z,99004.02
2023-04-20T10:49:22.510Z,99004.65
2023-04-20T10:51:12.961Z,98999.94
2023-04-20T10:52:53.366Z,99004.40
2023-04-20T10:54:26.961Z,99003.04
2023-04-20T10:56:03.209Z,99003.38
2023-04-20T10:57:36.462Z,99002.49
2023-04-20T10:58:59.898Z,99002.19
2023-04-20T11:00:34.982Z,98999.64
2023-04-20T11:02:28.733Z,98997.19
2023-04-20T11:04:16.194Z,98985.96
2023-04-20T11:06:03.588Z,98997.23
2023-04-20T11:07:57.597Z,99003.69
2023-04-20T11:09:51.020Z,99004.17
2023-04-20T11:11:45.371Z,99007.66
2023-04-20T11:13:39.212Z,99006.21
2023-04-20T11:15:13.644Z,99003.77
2023-04-20T11:16:59.042Z,99001.54
2023-04-20T11:18:52.763Z,99006.29
2023-04-20T11:20:15.165Z,99002.84
2023-04-20T11:21:48.336Z,99006.73
2023-04-20T11:23:41.966Z,99008.83
2023-04-20T11:25:17.928Z,99007.35
2023-04-20T11:26:53.799Z,99009.48
2023-04-20T11:28:34.979Z,99006.81
2023-04-20T11:30:10.237Z,99008.58
2023-04-20T11:31:55.333Z,99008.87
2023-04-20T11:33:28.964Z,99009.63
2023-04-20T11:35:14.231Z,98997.79
2023-04-20T11:36:58.973Z,99009.84
2023-04-20T11:38:32.397Z,99011.48
2023-04-20T11:40:06.078Z,99015.52
2023-04-20T11:41:27.727Z,99015.15
2023-04-20T11:42:48.963Z,99015.21
2023-04-20T11:44:26.028Z,99017.27
2023-04-20T11:45:47.859Z,99013.65
2023-04-20T11:47:17.211Z,99014.27
2023-04-20T11:49:02.190Z,99013.39
2023-04-20T11:50:56.146Z,99008.94
2023-04-20T11:52:41.115Z,99011.77
2023-04-20T11:54:34.663Z,99010.52
2023-04-20T11:56:08.764Z,99008.79
2023-04-20T11:57:53.503Z,99010.31
2023-04-20T11:59:28.271Z,99010.34
2023-04-20T12:01:01.191Z,99008.73
2023-04-20T12:02:36.669Z,99003.34
2023-04-20T12:04:10.331Z,99006.13
2023-04-20T12:05:44.321Z,98995.40
2023-04-20T12:07:26.585Z,99007.24
2023-04-20T12:08:51.116Z,99005.68
2023-04-20T12:10:15.122Z,99005.22
2023-04-20T12:11:39.768Z,99009.61
2023-04-20T12:13:01.697Z,99010.48
2023-04-20T12:14:26.904Z,99008.56
2023-04-20T12:15:51.012Z,99007.90
2023-04-20T12:17:29.610Z,99004.99
2023-04-20T12:19:00.666Z,99008.30
2023-04-20T12:20:45.828Z,99005.98
2023-04-20T12:22:21.753Z,99006.17
2023-04-20T12:23:57.400Z,99004.45
2023-04-20T12:25:50.690Z,99006.13
2023-04-20T12:27:25.629Z,99002.40
2023-04-20T12:28:58.863Z,98999.96
2023-04-20T12:30:44.107Z,99001.53
2023-04-20T12:32:13.395Z,98999.55
2023-04-20T12:33:44.533Z,98998.18
2023-04-20T12:35:38.242Z,98998.33
2023-04-20T12:37:11.491Z,98996.69
2023-04-20T12:38:33.557Z,98997.83
2023-04-20T12:40:07.141Z,98993.61
2023-04-20T12:41:36.510Z,98995.54
2023-04-20T12:43:00.665Z,98995.91
2023-04-20T12:44:24.785Z,98995.58
2023-04-20T12:45:57.919Z,98991.20
2023-04-20T12:47:31.817Z,98993.23
2023-04-20T12:48:55.638Z,98990.79
2023-04-20T12:50:17.517Z,98986.14
2023-04-20T12:51:39.398Z,98984.36
2023-04-20T12:53:21.334Z,98987.30
2023-04-20T12:55:02.146Z,98985.31
2023-04-20T12:56:47.164Z,98985.31
2023-04-20T12:58:09.095Z,98981.51
2023-04-20T12:59:31.016Z,98978.95
2023-04-20T13:00:52.453Z,98980.91
2023-04-20T13:02:26.379Z,98977.55
2023-04-20T13:03:48.826Z,98975.79
2023-04-20T13:05:20.632Z,98975.48
2023-04-20T13:07:05.936Z,98973.70
2023-04-20T13:08:39.601Z,98978.05
2023-04-20T13:10:09.028Z,98977.71
2023-04-20T13:11:44.471Z,98979.38
2023-04-20T13:13:18.389Z,98975.91
2023-04-20T13:14:51.658Z,98971.36
2023-04-20T13:16:15.978Z,98973.86
2023-04-20T13:17:49.130Z,98973.52
2023-04-20T13:19:31.118Z,98972.64
2023-04-20T13:21:04.813Z,98967.77
2023-04-20T13:22:57.554Z,98970.23
2023-04-20T13:24:27.608Z,98961.88
2023-04-20T13:26:00.757Z,98968.15
2023-04-20T13:27:41.769Z,98965.16
2023-04-20T13:29:17.511Z,98960.31
2023-04-20T13:30:47.038Z,98960.40
2023-04-20T13:32:27.989Z,98961.76
2023-04-20T13:33:56.530Z,98965.63
2023-04-20T13:35:30.513Z,98961.34
2023-04-20T13:37:04.153Z,98956.91
2023-04-20T13:38:33.304Z,98967.61
2023-04-20T13:40:06.864Z,98963.77
2023-04-20T13:41:52.193Z,98965.48
2023-04-20T13:43:16.229Z,98968.25
2023-04-20T13:45:01.037Z,98963.63
2023-04-20T13:46:46.024Z,98962.25
2023-04-20T13:48:36.363Z,98964.39
2023-04-20T13:50:09.484Z,98959.16
2023-04-20T13:51:54.138Z,98962.44
2023-04-20T13:53:38.369Z,98960.29
2023-04-20T13:55:25.005Z,98962.64
2023-04-20T13:57:02.381Z,98959.55
2023-04-20T13:58:26.940Z,98954.85
2023-04-20T14:00:02.518Z,98957.15
2023-04-20T14:01:34.645Z,98959.48
2023-04-20T14:03:27.222Z,98958.15
2023-04-20T14:05:13.233Z,98955.67
2023-04-20T14:06:58.328Z,98956.70
2023-04-20T14:08:40.620Z,98955.09
2023-04-20T14:10:22.346Z,98951.60
2023-04-20T14:11:57.742Z,98958.84
2023-04-20T14:13:43.164Z,98957.79
2023-04-20T14:15:05.512Z,98949.61
2023-04-20T14:16:39.977Z,98957.69
2023-04-20T14:18:13.616Z,98951.48
2023-04-20T14:19:58.361Z,98953.20
2023-04-20T14:21:46.747Z,98953.08
2023-04-20T14:23:09.609Z,98951.24
2023-04-20T14:24:45.301Z,98951.69
2023-04-20T14:26:30.808Z,98948.97
2023-04-20T14:28:11.785Z,98943.36
2023-04-20T14:29:44.864Z,98946.88
2023-04-20T14:31:08.989Z,98946.54
2023-04-20T14:32:42.585Z,98945.75
2023-04-20T14:34:13.087Z,98945.54
2023-04-20T14:35:46.456Z,98942.38
2023-04-20T14:37:29.435Z,98941.75
2023-04-20T14:39:14.542Z,98939.09
2023-04-20T14:40:54.786Z,98943.55
2023-04-20T14:42:49.435Z,98939.05
2023-04-20T14:44:22.991Z,98937.84
2023-04-20T14:46:15.936Z,98937.40
2023-04-20T14:47:51.568Z,98936.48
2023-04-20T14:49:45.409Z,98940.86
2023-04-20T14:51:34.464Z,98937.92
2023-04-20T14:53:08.123Z,98941.58
2023-04-20T14:54:44.091Z,98941.31
2023-04-20T14:56:13.330Z,98936.73
2023-04-20T14:57:48.914Z,98935.98
2023-04-20T14:59:20.324Z,98937.30
2023-04-20T15:00:56.172Z,98936.63
2023-04-20T15:02:28.054Z,98937.45
2023-04-20T15:04:03.882Z,98938.00
2023-04-20T15:05:42.017Z,98938.19
2023-04-20T15:07:17.663Z,98941.10
2023-04-20T15:08:42.376Z,98944.84
2023-04-20T15:10:16.158Z,98942.27
2023-04-20T15:11:37.631Z,98946.98
2023-04-20T15:13:18.520Z,98946.79
2023-04-20T15:15:03.680Z,98944.10
2023-04-20T15:16:25.281Z,98944.59
2023-04-20T15:17:58.555Z,98941.98
2023-04-20T15:19:30.260Z,98935.28
2023-04-20T15:21:01.186Z,98937.54
2023-04-20T15:22:46.263Z,98935.55
2023-04-20T15:24:23.119Z,98933.85
2023-04-20T15:25:49.497Z,98932.73
2023-04-20T15:27:22.889Z,98929.62
2023-04-20T15:29:07.545Z,98932.75
2023-04-20T15:30:40.978Z,98935.39
2023-04-20T15:32:14.403Z,98934.84
2023-04-20T15:33:50.557Z,98932.25
2023-04-20T15:35:31.298Z,98929.63
2023-04-20T15:37:07.652Z,98935.31
2023-04-20T15:38:36.818Z,98932.87
2023-04-20T15:40:12.731Z,98927.67
2023-04-20T15:41:43.771Z,98931.84
2023-04-20T15:43:17.424Z,98927.54
2023-04-20T15:44:50.721Z,98928.26
2023-04-20T15:46:24.232Z,98926.88
2023-04-20T15:48:09.193Z,98926.95
2023-04-20T15:49:40.455Z,98922.86
2023-04-20T15:51:25.508Z,98924.25
2023-04-20T15:52:49.681Z,98923.99
2023-04-20T15:54:23.690Z,98918.08
2023-04-20T15:55:59.468Z,98921.91
2023-04-20T15:57:33.729Z,98919.63
2023-04-20T15:59:18.713Z,98914.16
2023-04-20T16:01:00.056Z,98918.66
2023-04-20T16:02:34.450Z,98916.90
2023-04-20T16:04:19.977Z,98919.13
2023-04-20T16:05:53.864Z,98919.60
2023-04-20T16:07:38.212Z,98920.69
2023-04-20T16:08:59.748Z,98905.64
2023-04-20T16:10:40.688Z,98914.10
2023-04-20T16:12:05.470Z,98913.41
2023-04-20T16:13:29.299Z,98914.77
2023-04-20T16:15:03.691Z,98910.21
2023-04-20T16:16:58.468Z,98910.19
2023-04-20T16:18:32.292Z,98908.92
2023-04-20T16:19:54.033Z,98909.83
2023-04-20T16:21:27.492Z,98909.38
2023-04-20T16:22:59.360Z,98908.86
2023-04-20T16:24:23.105Z,98909.15
2023-04-20T16:25:56.308Z,98908.00
2023-04-20T16:27:29.740Z,98908.87
2023-04-20T16:28:58.935Z,98912.45
2023-04-20T16:30:40.055Z,98907.62
2023-04-20T16:32:04.617Z,98911.64
2023-04-20T16:33:33.761Z,98910.23
2023-04-20T16:35:07.885Z,98914.45
2023-04-20T16:36:29.473Z,98914.17
2023-04-20T16:38:04.807Z,98913.53
2023-04-20T16:39:57.990Z,98916.08
2023-04-20T16:41:31.813Z,98913.72
2023-04-20T16:43:18.226Z,98907.61
2023-04-20T16:44:53.918Z,98910.06
2023-04-20T16:46:46.872Z,98915.48
2023-04-20T16:48:27.800Z,98916.09
2023-04-20T16:50:09.017Z,98916.67
2023-04-20T16:51:33.261Z,98922.04
2023-04-20T16:53:04.501Z,98916.41
2023-04-20T16:54:50.423Z,98915.20
2023-04-20T16:56:15.063Z,98920.37
2023-04-20T16:57:59.985Z,98925.34
2023-04-20T16:59:50.357Z,98923.26
2023-04-20T17:01:12.420Z,98909.92
2023-04-20T17:02:53.033Z,98926.86
2023-04-20T17:04:36.083Z,98925.16
2023-04-20T17:06:07.044Z,98914.83
2023-04-20T17:07:29.174Z,98931.67
2023-04-20T17:09:22.467Z,98929.53
2023-04-20T17:11:07.248Z,98928.38
2023-04-20T17:12:29.084Z,98929.35
2023-04-20T17:14:02.636Z,98927.68
2023-04-20T17:15:47.690Z,98927.95
2023-04-20T17:17:41.494Z,98929.56
2023-04-20T17:19:05.467Z,98921.38
2023-04-20T17:20:52.176Z,98922.80
2023-04-20T17:22:16.551Z,98925.58
2023-04-20T17:23:41.004Z,98927.32
2023-04-20T17:25:14.726Z,98921.98
2023-04-20T17:26:41.445Z,98928.44
2023-04-20T17:28:22.444Z,98927.59
2023-04-20T17:29:56.356Z,98927.41
2023-04-20T17:31:33.399Z,98930.13
2023-04-20T17:32:57.188Z,98935.21
2023-04-20T17:34:20.429Z,98933.23
2023-04-20T17:35:46.662Z,98935.94
2023-04-20T17:37:15.952Z,98935.77
2023-04-20T17:38:50.096Z,98939.33
2023-04-20T17:40:12.150Z,98937.33
2023-04-20T17:41:35.565Z,98934.17
2023-04-20T17:42:57.068Z,98936.67
2023-04-20T17:44:25.953Z,98934.56
2023-04-20T17:46:11.162Z,98932.81
2023-04-20T17:47:46.884Z,98936.69
2023-04-20T17:49:20.414Z,98938.73
2023-04-20T17:50:49.684Z,98926.10
2023-04-20T17:52:34.765Z,98934.16
2023-04-20T17:54:08.391Z,98939.02
2023-04-20T17:55:41.973Z,98938.65
2023-04-20T17:57:15.413Z,98933.23
2023-04-20T17:58:49.145Z,98926.14
2023-04-20T18:00:13.496Z,98938.04
2023-04-20T18:01:35.910Z,98938.41
2023-04-20T18:03:05.285Z,98939.75
2023-04-20T18:04:39.109Z,98941.33
2023-04-20T18:06:13.468Z,98941.27
2023-04-20T18:07:46.602Z,98940.71
2023-04-20T18:09:12.725Z,98929.77
2023-04-20T18:10:46.188Z,98944.58
2023-04-20T18:12:10.507Z,98944.98
2023-04-20T18:13:32.171Z,98949.02
2023-04-20T18:14:53.544Z,98949.41
2023-04-20T18:16:15.989Z,98951.98
2023-04-20T18:17:44.621Z,98949.00
2023-04-20T18:19:38.326Z,98948.26
2023-04-20T18:21:09.770Z,98947.77
2023-04-20T18:22:51.383Z,98951.04
2023-04-20T18:24:32.061Z,98946.91
2023-04-20T18:25:56.289Z,98953.64
2023-04-20T18:27:37.026Z,98956.33
2023-04-20T18:29:10.649Z,98956.36
2023-04-20T18:30:57.659Z,98955.31
2023-04-20T18:32:33.003Z,98953.95
2023-04-20T18:34:18.171Z,98957.17
2023-04-20T18:36:00.382Z,98956.77
2023-04-20T18:37:54.154Z,98952.27
2023-04-20T18:39:43.452Z,98954.69
2023-04-20T18:41:24.186Z,98951.77
2023-04-20T18:42:57.780Z,98951.29
2023-04-20T18:44:42.171Z,98951.75
2023-04-20T18:46:14.056Z,98940.58
2023-04-20T18:47:47.143Z,98955.98
2023-04-20T18:49:27.960Z,98951.48
2023-04-20T18:51:03.615Z,98952.77
2023-04-20T18:52:26.315Z,98932.61